Terminal Aerodrome Forecast
Issued by NWS Shreveport, LA

Home | Current Version | Previous Version | Text Only | Print | Product List | Glossary On
Versions: 1 2 3 4 5 6 7 8 9 10 11 12 13 14
000
FTUS44 KSHV 301100 RRA
TAFSHV
TAF
KSHV 301154Z 3012/0112 VRB03KT P6SM BKN090
     FM301500 12007KT P6SM SCT045 BKN090
     FM302300 14007KT P6SM VCSH BKN040 OVC070
     FM010100 14005KT P6SM BKN050
     FM010900 14004KT P6SM OVC045
      TEMPO 0109/0111 5SM -SHRA OVC035=

USA.gov is the U.S. government's official web portal to all federal, state and local government web resources and services.